PWSweather.com
Personal Weather Stations
Station Observations
ALMOSTER
Urb. Mas Carreras, AlmosterES 43393

Urb. Mas CarrerasAlmosterES 43393

Lat: 41.1908333333, Lon: 1.1086111111

Elevation: 836.6

Station Type: Davis Vantage Pro 2

http://www.meteoalmoster.net

High Low Average
Temperature 62.6°F17.0°C 47.5°F8.6°C 54.2°F12.3°C
Dew Point 49.1°F9.5°C 37.0°F2.8°C 42.6°F5.9°C
Winds 25.0 mph 40.2 kmh Calm Calm 8.0 mph SW12.9 kmh SW
Wind Gusts 32.0 mph51.5 kmh -- 15.0 mph24.1 kmh
Humidity 67% 61% 65%
Pressure 30.19 in1022.4 mb 30.13 in1020.3 mb -
Precipitation 0.00 in0.0 mm - -
Hour Temp Dew Point Humidity Winds Wind Gusts Pressure Precip Precip Rate Daily Precip Total
12:00 AM 49.6°F9.8°C 38.3°F3.5°C 65% Calm Calm 4.0 mph6.4 kmh 30.19 in1022.4 mb 0.00 in0.0 mm 0.00 in0.0 mm 0.00 in0.0 mm
12:30 AM 49.5°F9.7°C 38.3°F3.5°C 65% Calm Calm 4.0 mph6.4 kmh 30.19 in1022.4 mb 0.00 in0.0 mm 0.00 in0.0 mm 0.00 in0.0 mm
01:00 AM 49.1°F9.5°C 37.8°F3.2°C 65% Calm Calm 2.0 mph3.2 kmh 30.19 in1022.4 mb 0.00 in0.0 mm 0.00 in0.0 mm 0.00 in0.0 mm
01:30 AM 48.0°F8.9°C 37.6°F3.1°C 67% Calm Calm -- 30.18 in1022.0 mb 0.00 in0.0 mm 0.00 in0.0 mm 0.00 in0.0 mm
02:00 AM 47.8°F8.8°C 37.4°F3.0°C 67% Calm Calm -- 30.17 in1021.7 mb 0.00 in0.0 mm 0.00 in0.0 mm 0.00 in0.0 mm
02:30 AM 47.7°F8.7°C 37.2°F2.9°C 67% Calm Calm 3.0 mph4.8 kmh 30.16 in1021.3 mb 0.00 in0.0 mm 0.00 in0.0 mm 0.00 in0.0 mm
03:00 AM 48.6°F9.2°C 37.6°F3.1°C 66% Calm Calm -- 30.15 in1021.0 mb 0.00 in0.0 mm 0.00 in0.0 mm 0.00 in0.0 mm
03:30 AM 47.8°F8.8°C 37.4°F3.0°C 67% Calm Calm 1.0 mph1.6 kmh 30.15 in1021.0 mb 0.00 in0.0 mm 0.00 in0.0 mm 0.00 in0.0 mm
04:00 AM 47.5°F8.6°C 37.0°F2.8°C 67% Calm Calm -- 30.14 in1020.7 mb 0.00 in0.0 mm 0.00 in0.0 mm 0.00 in0.0 mm
04:30 AM 48.9°F9.4°C 37.8°F3.2°C 65% Calm Calm -- 30.14 in1020.7 mb 0.00 in0.0 mm 0.00 in0.0 mm 0.00 in0.0 mm
05:00 AM 49.3°F9.6°C 37.6°F3.1°C 64% Calm Calm -- 30.13 in1020.3 mb 0.00 in0.0 mm 0.00 in0.0 mm 0.00 in0.0 mm
05:30 AM 48.6°F9.2°C 37.2°F2.9°C 65% Calm Calm 1.0 mph1.6 kmh 30.13 in1020.3 mb 0.00 in0.0 mm 0.00 in0.0 mm 0.00 in0.0 mm
06:00 AM 47.8°F8.8°C 37.0°F2.8°C 66% Calm Calm -- 30.13 in1020.3 mb 0.00 in0.0 mm 0.00 in0.0 mm 0.00 in0.0 mm
06:30 AM 50.7°F10.4°C 38.5°F3.6°C 63% 1.0 mph WSW1.6 kmh WSW 6.0 mph9.7 kmh 30.13 in1020.3 mb 0.00 in0.0 mm 0.00 in0.0 mm 0.00 in0.0 mm
07:00 AM 49.6°F9.8°C 38.5°F3.6°C 65% 13.0 mph W20.9 kmh W 23.0 mph37.0 kmh 30.13 in1020.3 mb 0.00 in0.0 mm 0.00 in0.0 mm 0.00 in0.0 mm
07:30 AM 48.9°F9.4°C 38.1°F3.4°C 66% 14.0 mph W22.5 kmh W 23.0 mph37.0 kmh 30.14 in1020.7 mb 0.00 in0.0 mm 0.00 in0.0 mm 0.00 in0.0 mm
08:00 AM 48.9°F9.4°C 38.1°F3.4°C 66% 15.0 mph W24.1 kmh W 29.0 mph46.7 kmh 30.14 in1020.7 mb 0.00 in0.0 mm 0.00 in0.0 mm 0.00 in0.0 mm
08:30 AM 48.7°F9.3°C 38.3°F3.5°C 67% 14.0 mph W22.5 kmh W 26.0 mph41.8 kmh 30.16 in1021.3 mb 0.00 in0.0 mm 0.00 in0.0 mm 0.00 in0.0 mm
09:00 AM 49.5°F9.7°C 39.0°F3.9°C 67% 16.0 mph WSW25.7 kmh WSW 29.0 mph46.7 kmh 30.16 in1021.3 mb 0.00 in0.0 mm 0.00 in0.0 mm 0.00 in0.0 mm
09:30 AM 49.8°F9.9°C 39.4°F4.1°C 67% 14.0 mph WSW22.5 kmh WSW 27.0 mph43.5 kmh 30.16 in1021.3 mb 0.00 in0.0 mm 0.00 in0.0 mm 0.00 in0.0 mm
10:00 AM 51.1°F10.6°C 40.5°F4.7°C 67% 14.0 mph WSW22.5 kmh WSW 24.0 mph38.6 kmh 30.16 in1021.3 mb 0.00 in0.0 mm 0.00 in0.0 mm 0.00 in0.0 mm
10:30 AM 52.3°F11.3°C 41.4°F5.2°C 66% 15.0 mph WSW24.1 kmh WSW 26.0 mph41.8 kmh 30.19 in1022.4 mb 0.00 in0.0 mm 0.00 in0.0 mm 0.00 in0.0 mm
11:00 AM 54.3°F12.4°C 42.4°F5.8°C 64% 13.0 mph W20.9 kmh W 25.0 mph40.2 kmh 30.19 in1022.4 mb 0.00 in0.0 mm 0.00 in0.0 mm 0.00 in0.0 mm
11:30 AM 55.8°F13.2°C 43.9°F6.6°C 64% 19.0 mph W30.6 kmh W 29.0 mph46.7 kmh 30.18 in1022.0 mb 0.00 in0.0 mm 0.00 in0.0 mm 0.00 in0.0 mm
12:00 PM 56.8°F13.8°C 44.8°F7.1°C 64% 22.0 mph W35.4 kmh W 31.0 mph49.9 kmh 30.18 in1022.0 mb 0.00 in0.0 mm 0.00 in0.0 mm 0.00 in0.0 mm
12:30 PM 57.7°F14.3°C 45.7°F7.6°C 64% 25.0 mph W40.2 kmh W 32.0 mph51.5 kmh 30.17 in1021.7 mb 0.00 in0.0 mm 0.00 in0.0 mm 0.00 in0.0 mm
01:00 PM 58.3°F14.6°C 45.7°F7.6°C 63% 25.0 mph W40.2 kmh W 31.0 mph49.9 kmh 30.17 in1021.7 mb 0.00 in0.0 mm 0.00 in0.0 mm 0.00 in0.0 mm
01:30 PM 59.2°F15.1°C 46.0°F7.8°C 62% 20.0 mph W32.2 kmh W 30.0 mph48.3 kmh 30.17 in1021.7 mb 0.00 in0.0 mm 0.00 in0.0 mm 0.00 in0.0 mm
02:00 PM 60.3°F15.7°C 47.1°F8.4°C 62% 19.0 mph W30.6 kmh W 31.0 mph49.9 kmh 30.17 in1021.7 mb 0.00 in0.0 mm 0.00 in0.0 mm 0.00 in0.0 mm
02:30 PM 61.2°F16.2°C 48.0°F8.9°C 62% 15.0 mph W24.1 kmh W 25.0 mph40.2 kmh 30.16 in1021.3 mb 0.00 in0.0 mm 0.00 in0.0 mm 0.00 in0.0 mm
03:00 PM 62.1°F16.7°C 48.4°F9.1°C 61% 16.0 mph W25.7 kmh W 28.0 mph45.1 kmh 30.16 in1021.3 mb 0.00 in0.0 mm 0.00 in0.0 mm 0.00 in0.0 mm
03:30 PM 62.6°F17.0°C 48.9°F9.4°C 61% 13.0 mph W20.9 kmh W 27.0 mph43.5 kmh 30.16 in1021.3 mb 0.00 in0.0 mm 0.00 in0.0 mm 0.00 in0.0 mm
04:00 PM 62.4°F16.9°C 48.7°F9.3°C 61% 14.0 mph W22.5 kmh W 28.0 mph45.1 kmh 30.17 in1021.7 mb 0.00 in0.0 mm 0.00 in0.0 mm 0.00 in0.0 mm
04:30 PM 62.2°F16.8°C 49.1°F9.5°C 62% 12.0 mph W19.3 kmh W 22.0 mph35.4 kmh 30.17 in1021.7 mb 0.00 in0.0 mm 0.00 in0.0 mm 0.00 in0.0 mm
05:00 PM 61.9°F16.6°C 48.7°F9.3°C 62% 7.0 mph W11.3 kmh W 18.0 mph29.0 kmh 30.18 in1022.0 mb 0.00 in0.0 mm 0.00 in0.0 mm 0.00 in0.0 mm
05:30 PM 61.3°F16.3°C 48.6°F9.2°C 63% Calm Calm 2.0 mph3.2 kmh 30.17 in1021.7 mb 0.00 in0.0 mm 0.00 in0.0 mm 0.00 in0.0 mm
06:00 PM 60.4°F15.8°C 48.2°F9.0°C 64% 1.0 mph WSW1.6 kmh WSW 6.0 mph9.7 kmh 30.17 in1021.7 mb 0.00 in0.0 mm 0.00 in0.0 mm 0.00 in0.0 mm
07:00 PM 59.4°F15.2°C 48.0°F8.9°C 66% 3.0 mph WSW4.8 kmh WSW 14.0 mph22.5 kmh 30.16 in1021.3 mb 0.00 in0.0 mm 0.00 in0.0 mm 0.00 in0.0 mm
08:00 PM 58.8°F14.9°C 47.5°F8.6°C 66% 1.0 mph WSW1.6 kmh WSW 5.0 mph8.0 kmh 30.14 in1020.7 mb 0.00 in0.0 mm 0.00 in0.0 mm 0.00 in0.0 mm
08:30 PM 57.9°F14.4°C 47.1°F8.4°C 67% 1.0 mph WSW1.6 kmh WSW 5.0 mph8.0 kmh 30.15 in1021.0 mb 0.00 in0.0 mm 0.00 in0.0 mm 0.00 in0.0 mm
09:00 PM 57.7°F14.3°C 46.8°F8.2°C 67% 8.0 mph SW12.9 kmh SW 18.0 mph29.0 kmh 30.15 in1021.0 mb 0.00 in0.0 mm 0.00 in0.0 mm 0.00 in0.0 mm
09:30 PM 57.4°F14.1°C 46.4°F8.0°C 67% Calm Calm 5.0 mph8.0 kmh 30.15 in1021.0 mb 0.00 in0.0 mm 0.00 in0.0 mm 0.00 in0.0 mm
10:00 PM 57.2°F14.0°C 46.4°F8.0°C 67% 9.0 mph SW14.5 kmh SW 29.0 mph46.7 kmh 30.15 in1021.0 mb 0.00 in0.0 mm 0.00 in0.0 mm 0.00 in0.0 mm
10:30 PM 55.9°F13.3°C 45.1°F7.3°C 67% 8.0 mph SW12.9 kmh SW 18.0 mph29.0 kmh 30.15 in1021.0 mb 0.00 in0.0 mm 0.00 in0.0 mm 0.00 in0.0 mm
11:00 PM 55.6°F13.1°C 44.4°F6.9°C 66% Calm Calm 4.0 mph6.4 kmh 30.15 in1021.0 mb 0.00 in0.0 mm 0.00 in0.0 mm 0.00 in0.0 mm
11:30 PM 55.2°F12.9°C 44.1°F6.7°C 66% Calm Calm 4.0 mph6.4 kmh 30.15 in1021.0 mb 0.00 in0.0 mm 0.00 in0.0 mm 0.00 in0.0 mm